sensor_id;sensor_type;location;lat;lon;timestamp;P1;durP1;ratioP1;P2;durP2;ratioP2
68765;SDS011;55756;45.582;11.484;2023-02-15T00:01:54;50.67;;;41.80;;
68765;SDS011;55756;45.582;11.484;2023-02-15T00:04:21;50.85;;;41.28;;
68765;SDS011;55756;45.582;11.484;2023-02-15T00:06:48;50.97;;;40.85;;
68765;SDS011;55756;45.582;11.484;2023-02-15T00:09:14;50.25;;;42.25;;
68765;SDS011;55756;45.582;11.484;2023-02-15T00:11:40;48.50;;;40.33;;
68765;SDS011;55756;45.582;11.484;2023-02-15T00:14:22;48.72;;;40.90;;
68765;SDS011;55756;45.582;11.484;2023-02-15T00:16:51;50.38;;;42.28;;
68765;SDS011;55756;45.582;11.484;2023-02-15T00:19:21;51.30;;;41.08;;
68765;SDS011;55756;45.582;11.484;2023-02-15T00:21:47;52.35;;;41.45;;
68765;SDS011;55756;45.582;11.484;2023-02-15T00:24:14;48.40;;;40.40;;
68765;SDS011;55756;45.582;11.484;2023-02-15T00:26:42;52.97;;;42.60;;
68765;SDS011;55756;45.582;11.484;2023-02-15T00:29:09;52.72;;;42.00;;
68765;SDS011;55756;45.582;11.484;2023-02-15T00:31:37;50.13;;;41.42;;
68765;SDS011;55756;45.582;11.484;2023-02-15T00:36:34;46.88;;;40.10;;
68765;SDS011;55756;45.582;11.484;2023-02-15T00:39:00;48.08;;;40.00;;
68765;SDS011;55756;45.582;11.484;2023-02-15T00:41:25;49.97;;;40.97;;
68765;SDS011;55756;45.582;11.484;2023-02-15T00:43:51;51.30;;;40.65;;
68765;SDS011;55756;45.582;11.484;2023-02-15T00:46:17;49.88;;;41.75;;
68765;SDS011;55756;45.582;11.484;2023-02-15T00:48:43;46.63;;;39.65;;
68765;SDS011;55756;45.582;11.484;2023-02-15T00:51:10;48.60;;;40.88;;
68765;SDS011;55756;45.582;11.484;2023-02-15T00:53:35;49.97;;;41.25;;
68765;SDS011;55756;45.582;11.484;2023-02-15T00:56:01;49.97;;;41.55;;
68765;SDS011;55756;45.582;11.484;2023-02-15T00:58:27;51.25;;;42.38;;
68765;SDS011;55756;45.582;11.484;2023-02-15T01:00:53;49.05;;;39.97;;
68765;SDS011;55756;45.582;11.484;2023-02-15T01:03:19;49.53;;;40.85;;
68765;SDS011;55756;45.582;11.484;2023-02-15T01:05:46;49.25;;;40.80;;
68765;SDS011;55756;45.582;11.484;2023-02-15T01:08:13;48.60;;;40.70;;
68765;SDS011;55756;45.582;11.484;2023-02-15T01:10:39;48.03;;;40.50;;
68765;SDS011;55756;45.582;11.484;2023-02-15T01:13:05;50.45;;;41.72;;
68765;SDS011;55756;45.582;11.484;2023-02-15T01:15:34;48.13;;;40.80;;
68765;SDS011;55756;45.582;11.484;2023-02-15T01:18:03;48.28;;;40.85;;
68765;SDS011;55756;45.582;11.484;2023-02-15T01:20:29;48.60;;;40.67;;
68765;SDS011;55756;45.582;11.484;2023-02-15T01:22:56;47.97;;;40.88;;
68765;SDS011;55756;45.582;11.484;2023-02-15T01:25:23;48.67;;;40.08;;
68765;SDS011;55756;45.582;11.484;2023-02-15T01:27:49;48.05;;;41.40;;
68765;SDS011;55756;45.582;11.484;2023-02-15T01:30:17;48.92;;;40.35;;
68765;SDS011;55756;45.582;11.484;2023-02-15T01:32:46;49.38;;;41.17;;
68765;SDS011;55756;45.582;11.484;2023-02-15T01:35:12;50.63;;;42.17;;
68765;SDS011;55756;45.582;11.484;2023-02-15T01:37:38;47.40;;;40.53;;
68765;SDS011;55756;45.582;11.484;2023-02-15T01:40:08;48.70;;;41.83;;
68765;SDS011;55756;45.582;11.484;2023-02-15T01:42:37;50.30;;;41.33;;
68765;SDS011;55756;45.582;11.484;2023-02-15T01:45:48;52.85;;;41.65;;
68765;SDS011;55756;45.582;11.484;2023-02-15T01:50:36;49.85;;;41.80;;
68765;SDS011;55756;45.582;11.484;2023-02-15T01:53:47;52.95;;;41.53;;
68765;SDS011;55756;45.582;11.484;2023-02-15T01:56:01;49.63;;;41.70;;
68765;SDS011;55756;45.582;11.484;2023-02-15T01:58:55;50.47;;;41.45;;
68765;SDS011;55756;45.582;11.484;2023-02-15T02:01:24;50.97;;;41.50;;
68765;SDS011;55756;45.582;11.484;2023-02-15T02:06:41;49.58;;;40.80;;
68765;SDS011;55756;45.582;11.484;2023-02-15T02:09:07;49.53;;;40.75;;
68765;SDS011;55756;45.582;11.484;2023-02-15T02:11:33;49.13;;;41.35;;
68765;SDS011;55756;45.582;11.484;2023-02-15T02:14:00;48.47;;;41.22;;
68765;SDS011;55756;45.582;11.484;2023-02-15T02:39:07;49.28;;;41.88;;
68765;SDS011;55756;45.582;11.484;2023-02-15T02:44:52;51.83;;;41.38;;
68765;SDS011;55756;45.582;11.484;2023-02-15T02:47:47;49.10;;;40.65;;
68765;SDS011;55756;45.582;11.484;2023-02-15T02:50:22;48.63;;;40.38;;
68765;SDS011;55756;45.582;11.484;2023-02-15T02:52:52;49.67;;;41.30;;
68765;SDS011;55756;45.582;11.484;2023-02-15T02:55:21;49.53;;;42.22;;
68765;SDS011;55756;45.582;11.484;2023-02-15T03:00:37;52.33;;;42.15;;
68765;SDS011;55756;45.582;11.484;2023-02-15T03:03:11;50.38;;;42.42;;
68765;SDS011;55756;45.582;11.484;2023-02-15T03:05:41;48.42;;;42.30;;
68765;SDS011;55756;45.582;11.484;2023-02-15T03:08:12;49.38;;;42.13;;
68765;SDS011;55756;45.582;11.484;2023-02-15T03:10:46;49.25;;;42.08;;
68765;SDS011;55756;45.582;11.484;2023-02-15T03:13:24;51.00;;;42.00;;
68765;SDS011;55756;45.582;11.484;2023-02-15T03:15:50;49.30;;;42.42;;
68765;SDS011;55756;45.582;11.484;2023-02-15T03:18:38;51.00;;;43.28;;
68765;SDS011;55756;45.582;11.484;2023-02-15T03:21:08;47.67;;;40.80;;
68765;SDS011;55756;45.582;11.484;2023-02-15T03:23:52;51.05;;;42.25;;
68765;SDS011;55756;45.582;11.484;2023-02-15T03:26:22;55.10;;;42.80;;
68765;SDS011;55756;45.582;11.484;2023-02-15T03:28:50;50.57;;;42.30;;
68765;SDS011;55756;45.582;11.484;2023-02-15T03:31:21;49.10;;;41.80;;
68765;SDS011;55756;45.582;11.484;2023-02-15T03:33:58;49.88;;;41.35;;
68765;SDS011;55756;45.582;11.484;2023-02-15T03:36:33;51.90;;;42.45;;
68765;SDS011;55756;45.582;11.484;2023-02-15T03:41:49;50.20;;;42.60;;
68765;SDS011;55756;45.582;11.484;2023-02-15T03:44:22;51.33;;;42.47;;
68765;SDS011;55756;45.582;11.484;2023-02-15T03:47:05;48.65;;;41.08;;
68765;SDS011;55756;45.582;11.484;2023-02-15T03:49:53;49.25;;;41.80;;
68765;SDS011;55756;45.582;11.484;2023-02-15T03:52:25;50.22;;;41.70;;
68765;SDS011;55756;45.582;11.484;2023-02-15T03:54:54;50.22;;;42.55;;
68765;SDS011;55756;45.582;11.484;2023-02-15T03:57:27;50.53;;;40.75;;
68765;SDS011;55756;45.582;11.484;2023-02-15T04:05:38;54.97;;;42.10;;
68765;SDS011;55756;45.582;11.484;2023-02-15T04:08:04;47.65;;;40.65;;
68765;SDS011;55756;45.582;11.484;2023-02-15T04:10:30;47.45;;;41.53;;
68765;SDS011;55756;45.582;11.484;2023-02-15T04:13:14;49.03;;;40.83;;
68765;SDS011;55756;45.582;11.484;2023-02-15T04:15:40;49.60;;;41.92;;
68765;SDS011;55756;45.582;11.484;2023-02-15T04:18:24;46.42;;;40.45;;
68765;SDS011;55756;45.582;11.484;2023-02-15T04:21:19;48.63;;;41.50;;
68765;SDS011;55756;45.582;11.484;2023-02-15T04:24:04;48.33;;;41.13;;
68765;SDS011;55756;45.582;11.484;2023-02-15T04:26:49;48.45;;;40.97;;
68765;SDS011;55756;45.582;11.484;2023-02-15T04:29:18;51.80;;;42.35;;
68765;SDS011;55756;45.582;11.484;2023-02-15T04:31:45;48.05;;;40.95;;
68765;SDS011;55756;45.582;11.484;2023-02-15T04:34:11;49.90;;;41.33;;
68765;SDS011;55756;45.582;11.484;2023-02-15T04:36:37;45.95;;;40.92;;
68765;SDS011;55756;45.582;11.484;2023-02-15T04:39:03;48.70;;;41.85;;
68765;SDS011;55756;45.582;11.484;2023-02-15T04:41:29;48.83;;;41.05;;
68765;SDS011;55756;45.582;11.484;2023-02-15T04:43:58;50.30;;;40.53;;
68765;SDS011;55756;45.582;11.484;2023-02-15T04:46:25;48.75;;;41.17;;
68765;SDS011;55756;45.582;11.484;2023-02-15T04:48:52;47.15;;;40.67;;
68765;SDS011;55756;45.582;11.484;2023-02-15T04:51:18;49.78;;;40.08;;
68765;SDS011;55756;45.582;11.484;2023-02-15T04:53:44;50.45;;;41.50;;
68765;SDS011;55756;45.582;11.484;2023-02-15T04:56:10;48.10;;;40.05;;
68765;SDS011;55756;45.582;11.484;2023-02-15T04:58:36;46.85;;;40.38;;
68765;SDS011;55756;45.582;11.484;2023-02-15T05:01:02;46.92;;;40.45;;
68765;SDS011;55756;45.582;11.484;2023-02-15T05:03:28;49.63;;;40.60;;
68765;SDS011;55756;45.582;11.484;2023-02-15T05:05:54;47.47;;;40.42;;
68765;SDS011;55756;45.582;11.484;2023-02-15T05:08:19;48.00;;;40.00;;
68765;SDS011;55756;45.582;11.484;2023-02-15T05:10:48;49.33;;;40.83;;
68765;SDS011;55756;45.582;11.484;2023-02-15T05:13:17;46.30;;;39.88;;
68765;SDS011;55756;45.582;11.484;2023-02-15T05:18:16;48.60;;;41.22;;
68765;SDS011;55756;45.582;11.484;2023-02-15T05:20:42;48.55;;;40.53;;
68765;SDS011;55756;45.582;11.484;2023-02-15T05:23:08;48.28;;;41.50;;
68765;SDS011;55756;45.582;11.484;2023-02-15T05:25:34;48.95;;;40.40;;
68765;SDS011;55756;45.582;11.484;2023-02-15T05:28:18;49.08;;;41.67;;
68765;SDS011;55756;45.582;11.484;2023-02-15T05:30:44;45.30;;;39.55;;
68765;SDS011;55756;45.582;11.484;2023-02-15T05:33:30;49.65;;;40.05;;
68765;SDS011;55756;45.582;11.484;2023-02-15T05:35:57;49.15;;;38.83;;
68765;SDS011;55756;45.582;11.484;2023-02-15T05:38:23;51.28;;;39.47;;
68765;SDS011;55756;45.582;11.484;2023-02-15T05:40:50;46.08;;;39.45;;
68765;SDS011;55756;45.582;11.484;2023-02-15T05:43:16;44.75;;;38.17;;
68765;SDS011;55756;45.582;11.484;2023-02-15T05:45:45;47.05;;;38.70;;
68765;SDS011;55756;45.582;11.484;2023-02-15T05:48:15;45.92;;;38.63;;
68765;SDS011;55756;45.582;11.484;2023-02-15T05:50:41;50.08;;;37.97;;
68765;SDS011;55756;45.582;11.484;2023-02-15T05:53:07;44.30;;;38.38;;
68765;SDS011;55756;45.582;11.484;2023-02-15T05:55:33;44.53;;;38.13;;
68765;SDS011;55756;45.582;11.484;2023-02-15T05:57:58;44.28;;;36.05;;
68765;SDS011;55756;45.582;11.484;2023-02-15T06:00:24;46.45;;;37.67;;
68765;SDS011;55756;45.582;11.484;2023-02-15T06:02:53;51.33;;;37.45;;
68765;SDS011;55756;45.582;11.484;2023-02-15T06:05:19;46.50;;;38.90;;
68765;SDS011;55756;45.582;11.484;2023-02-15T06:07:44;50.42;;;38.22;;
68765;SDS011;55756;45.582;11.484;2023-02-15T06:10:13;46.78;;;38.67;;
68765;SDS011;55756;45.582;11.484;2023-02-15T06:12:43;47.83;;;38.13;;
68765;SDS011;55756;45.582;11.484;2023-02-15T06:15:11;48.25;;;37.95;;
